sensor_id;sensor_type;location;lat;lon;timestamp;P1;durP1;ratioP1;P2;durP2;ratioP2
73136;SDS011;67767;45.636;11.756;2023-06-22T00:00:27;19.77;;;15.30;;
73136;SDS011;67767;45.636;11.756;2023-06-22T00:02:53;19.40;;;14.93;;
73136;SDS011;67767;45.636;11.756;2023-06-22T00:05:18;20.55;;;14.27;;
73136;SDS011;67767;45.636;11.756;2023-06-22T00:07:44;21.00;;;15.20;;
73136;SDS011;67767;45.636;11.756;2023-06-22T00:10:10;22.48;;;15.00;;
73136;SDS011;67767;45.636;11.756;2023-06-22T00:12:35;22.45;;;15.30;;
73136;SDS011;67767;45.636;11.756;2023-06-22T00:15:01;21.27;;;15.50;;
73136;SDS011;67767;45.636;11.756;2023-06-22T00:17:27;20.13;;;15.43;;
73136;SDS011;67767;45.636;11.756;2023-06-22T00:19:52;22.50;;;15.63;;
73136;SDS011;67767;45.636;11.756;2023-06-22T00:22:20;22.65;;;15.88;;
73136;SDS011;67767;45.636;11.756;2023-06-22T00:24:53;22.60;;;14.83;;
73136;SDS011;67767;45.636;11.756;2023-06-22T00:27:20;23.27;;;15.82;;
73136;SDS011;67767;45.636;11.756;2023-06-22T00:29:46;20.77;;;15.57;;
73136;SDS011;67767;45.636;11.756;2023-06-22T00:32:12;24.70;;;16.70;;
73136;SDS011;67767;45.636;11.756;2023-06-22T00:34:37;21.40;;;15.52;;
73136;SDS011;67767;45.636;11.756;2023-06-22T00:37:03;23.60;;;16.10;;
73136;SDS011;67767;45.636;11.756;2023-06-22T00:39:29;23.13;;;16.02;;
73136;SDS011;67767;45.636;11.756;2023-06-22T00:41:56;21.98;;;16.08;;
73136;SDS011;67767;45.636;11.756;2023-06-22T00:44:21;23.80;;;16.42;;
73136;SDS011;67767;45.636;11.756;2023-06-22T00:46:47;23.30;;;16.00;;
73136;SDS011;67767;45.636;11.756;2023-06-22T00:49:13;19.85;;;15.63;;
73136;SDS011;67767;45.636;11.756;2023-06-22T00:51:39;21.60;;;16.33;;
73136;SDS011;67767;45.636;11.756;2023-06-22T00:54:10;22.25;;;16.52;;
73136;SDS011;67767;45.636;11.756;2023-06-22T00:56:38;27.00;;;16.77;;
73136;SDS011;67767;45.636;11.756;2023-06-22T00:59:05;21.40;;;16.48;;
73136;SDS011;67767;45.636;11.756;2023-06-22T01:01:31;23.57;;;16.60;;
73136;SDS011;67767;45.636;11.756;2023-06-22T01:03:59;26.25;;;17.48;;
73136;SDS011;67767;45.636;11.756;2023-06-22T01:06:26;24.17;;;16.98;;
73136;SDS011;67767;45.636;11.756;2023-06-22T01:09:06;28.05;;;18.20;;
73136;SDS011;67767;45.636;11.756;2023-06-22T01:11:45;23.48;;;16.40;;
73136;SDS011;67767;45.636;11.756;2023-06-22T01:14:19;24.23;;;18.50;;
73136;SDS011;67767;45.636;11.756;2023-06-22T01:16:53;27.52;;;18.23;;
73136;SDS011;67767;45.636;11.756;2023-06-22T01:19:41;24.30;;;17.70;;
73136;SDS011;67767;45.636;11.756;2023-06-22T01:22:12;31.13;;;18.58;;
73136;SDS011;67767;45.636;11.756;2023-06-22T01:27:39;25.43;;;18.97;;
73136;SDS011;67767;45.636;11.756;2023-06-22T01:30:14;28.13;;;19.95;;
73136;SDS011;67767;45.636;11.756;2023-06-22T01:32:42;27.35;;;19.25;;
73136;SDS011;67767;45.636;11.756;2023-06-22T01:35:08;25.02;;;18.48;;
73136;SDS011;67767;45.636;11.756;2023-06-22T01:37:35;24.50;;;18.60;;
73136;SDS011;67767;45.636;11.756;2023-06-22T01:40:02;24.63;;;19.30;;
73136;SDS011;67767;45.636;11.756;2023-06-22T01:42:31;26.27;;;18.88;;
73136;SDS011;67767;45.636;11.756;2023-06-22T01:44:57;27.17;;;19.20;;
73136;SDS011;67767;45.636;11.756;2023-06-22T01:47:24;25.42;;;20.05;;
73136;SDS011;67767;45.636;11.756;2023-06-22T01:49:50;25.05;;;19.42;;
73136;SDS011;67767;45.636;11.756;2023-06-22T01:52:17;25.77;;;18.93;;
73136;SDS011;67767;45.636;11.756;2023-06-22T01:54:43;26.20;;;19.77;;
73136;SDS011;67767;45.636;11.756;2023-06-22T01:57:09;26.92;;;19.75;;
73136;SDS011;67767;45.636;11.756;2023-06-22T02:02:31;28.23;;;20.67;;
73136;SDS011;67767;45.636;11.756;2023-06-22T02:05:08;29.88;;;20.95;;
73136;SDS011;67767;45.636;11.756;2023-06-22T02:07:49;33.10;;;21.20;;
73136;SDS011;67767;45.636;11.756;2023-06-22T02:10:19;29.38;;;22.38;;
73136;SDS011;67767;45.636;11.756;2023-06-22T02:12:47;29.50;;;21.90;;
73136;SDS011;67767;45.636;11.756;2023-06-22T02:15:14;31.67;;;23.05;;
73136;SDS011;67767;45.636;11.756;2023-06-22T02:17:41;29.60;;;21.92;;
73136;SDS011;67767;45.636;11.756;2023-06-22T02:20:13;32.67;;;21.90;;
73136;SDS011;67767;45.636;11.756;2023-06-22T02:22:39;30.17;;;22.20;;
73136;SDS011;67767;45.636;11.756;2023-06-22T02:25:05;27.77;;;21.53;;
73136;SDS011;67767;45.636;11.756;2023-06-22T02:27:31;32.03;;;22.08;;
73136;SDS011;67767;45.636;11.756;2023-06-22T02:29:57;31.08;;;23.65;;
73136;SDS011;67767;45.636;11.756;2023-06-22T02:32:22;31.63;;;23.40;;
73136;SDS011;67767;45.636;11.756;2023-06-22T02:34:48;34.28;;;24.73;;
73136;SDS011;67767;45.636;11.756;2023-06-22T02:37:14;33.07;;;25.20;;
73136;SDS011;67767;45.636;11.756;2023-06-22T02:39:40;35.17;;;25.85;;
73136;SDS011;67767;45.636;11.756;2023-06-22T02:42:06;33.22;;;25.88;;
73136;SDS011;67767;45.636;11.756;2023-06-22T02:44:32;36.50;;;25.67;;
73136;SDS011;67767;45.636;11.756;2023-06-22T02:46:57;31.15;;;24.00;;
73136;SDS011;67767;45.636;11.756;2023-06-22T02:49:23;35.50;;;24.33;;
73136;SDS011;67767;45.636;11.756;2023-06-22T02:51:49;30.98;;;23.48;;
73136;SDS011;67767;45.636;11.756;2023-06-22T02:54:15;31.55;;;24.15;;
73136;SDS011;67767;45.636;11.756;2023-06-22T02:56:41;32.22;;;23.65;;
73136;SDS011;67767;45.636;11.756;2023-06-22T02:59:09;28.57;;;22.53;;
73136;SDS011;67767;45.636;11.756;2023-06-22T03:01:36;31.00;;;22.50;;
73136;SDS011;67767;45.636;11.756;2023-06-22T03:04:05;27.10;;;20.00;;
73136;SDS011;67767;45.636;11.756;2023-06-22T03:06:32;28.15;;;21.80;;
73136;SDS011;67767;45.636;11.756;2023-06-22T03:08:59;31.55;;;22.73;;
73136;SDS011;67767;45.636;11.756;2023-06-22T03:11:26;28.07;;;21.23;;
73136;SDS011;67767;45.636;11.756;2023-06-22T03:13:52;29.15;;;21.90;;
73136;SDS011;67767;45.636;11.756;2023-06-22T03:16:18;31.05;;;23.45;;
73136;SDS011;67767;45.636;11.756;2023-06-22T03:18:44;32.22;;;22.92;;
73136;SDS011;67767;45.636;11.756;2023-06-22T03:21:10;32.60;;;23.57;;
73136;SDS011;67767;45.636;11.756;2023-06-22T03:23:35;33.53;;;22.27;;
73136;SDS011;67767;45.636;11.756;2023-06-22T03:26:02;32.97;;;23.20;;
73136;SDS011;67767;45.636;11.756;2023-06-22T03:28:29;31.20;;;22.48;;
73136;SDS011;67767;45.636;11.756;2023-06-22T03:30:56;29.40;;;21.23;;
73136;SDS011;67767;45.636;11.756;2023-06-22T03:33:23;102.05;;;51.28;;
73136;SDS011;67767;45.636;11.756;2023-06-22T03:35:48;156.63;;;84.00;;
73136;SDS011;67767;45.636;11.756;2023-06-22T03:38:15;168.75;;;95.70;;
73136;SDS011;67767;45.636;11.756;2023-06-22T03:40:41;375.52;;;214.70;;
73136;SDS011;67767;45.636;11.756;2023-06-22T03:43:07;290.87;;;168.33;;
73136;SDS011;67767;45.636;11.756;2023-06-22T03:45:32;201.95;;;116.05;;
73136;SDS011;67767;45.636;11.756;2023-06-22T03:47:58;150.60;;;86.23;;
73136;SDS011;67767;45.636;11.756;2023-06-22T03:50:25;110.18;;;66.35;;
73136;SDS011;67767;45.636;11.756;2023-06-22T03:52:50;108.87;;;62.17;;
73136;SDS011;67767;45.636;11.756;2023-06-22T03:55:17;102.80;;;58.30;;
73136;SDS011;67767;45.636;11.756;2023-06-22T03:57:44;96.97;;;54.97;;
73136;SDS011;67767;45.636;11.756;2023-06-22T04:00:10;128.65;;;74.40;;
73136;SDS011;67767;45.636;11.756;2023-06-22T04:02:36;351.37;;;207.80;;
73136;SDS011;67767;45.636;11.756;2023-06-22T04:05:02;306.58;;;174.68;;
73136;SDS011;67767;45.636;11.756;2023-06-22T04:07:28;282.90;;;160.57;;
73136;SDS011;67767;45.636;11.756;2023-06-22T04:09:53;167.50;;;96.97;;
73136;SDS011;67767;45.636;11.756;2023-06-22T04:12:19;218.57;;;124.00;;
73136;SDS011;67767;45.636;11.756;2023-06-22T04:14:45;298.53;;;174.27;;
73136;SDS011;67767;45.636;11.756;2023-06-22T04:17:10;271.37;;;161.77;;
73136;SDS011;67767;45.636;11.756;2023-06-22T04:19:39;212.87;;;122.80;;
73136;SDS011;67767;45.636;11.756;2023-06-22T04:22:05;130.25;;;74.75;;
73136;SDS011;67767;45.636;11.756;2023-06-22T04:24:32;91.22;;;55.88;;
73136;SDS011;67767;45.636;11.756;2023-06-22T04:26:58;75.45;;;49.55;;
73136;SDS011;67767;45.636;11.756;2023-06-22T04:29:27;63.28;;;41.13;;
73136;SDS011;67767;45.636;11.756;2023-06-22T04:31:55;90.43;;;51.90;;
73136;SDS011;67767;45.636;11.756;2023-06-22T04:34:23;232.00;;;119.00;;
73136;SDS011;67767;45.636;11.756;2023-06-22T04:36:52;162.60;;;82.97;;
73136;SDS011;67767;45.636;11.756;2023-06-22T04:39:18;66.90;;;38.97;;
73136;SDS011;67767;45.636;11.756;2023-06-22T04:41:44;67.47;;;37.70;;
73136;SDS011;67767;45.636;11.756;2023-06-22T04:46:51;162.27;;;76.18;;
73136;SDS011;67767;45.636;11.756;2023-06-22T04:49:30;124.80;;;59.55;;
73136;SDS011;67767;45.636;11.756;2023-06-22T04:52:00;132.43;;;60.50;;
73136;SDS011;67767;45.636;11.756;2023-06-22T04:54:26;191.43;;;92.43;;
73136;SDS011;67767;45.636;11.756;2023-06-22T04:56:52;53.42;;;34.47;;
73136;SDS011;67767;45.636;11.756;2023-06-22T04:59:24;37.53;;;25.10;;
73136;SDS011;67767;45.636;11.756;2023-06-22T05:01:58;40.17;;;26.77;;
73136;SDS011;67767;45.636;11.756;2023-06-22T05:04:25;40.67;;;25.92;;
73136;SDS011;67767;45.636;11.756;2023-06-22T05:07:00;39.10;;;26.25;;
73136;SDS011;67767;45.636;11.756;2023-06-22T05:09:27;40.38;;;26.35;;
73136;SDS011;67767;45.636;11.756;2023-06-22T05:11:54;229.60;;;99.23;;
73136;SDS011;67767;45.636;11.756;2023-06-22T05:14:21;101.65;;;52.72;;
73136;SDS011;67767;45.636;11.756;2023-06-22T05:16:48;74.38;;;40.83;;
73136;SDS011;67767;45.636;11.756;2023-06-22T05:19:14;49.05;;;34.38;;
73136;SDS011;67767;45.636;11.756;2023-06-22T05:21:40;51.37;;;33.00;;
73136;SDS011;67767;45.636;11.756;2023-06-22T05:24:05;46.72;;;31.90;;
73136;SDS011;67767;45.636;11.756;2023-06-22T05:26:32;45.03;;;28.40;;
73136;SDS011;67767;45.636;11.756;2023-06-22T05:28:59;53.80;;;30.83;;
73136;SDS011;67767;45.636;11.756;2023-06-22T05:31:26;40.92;;;28.70;;
73136;SDS011;67767;45.636;11.756;2023-06-22T05:33:52;43.80;;;29.65;;
73136;SDS011;67767;45.636;11.756;2023-06-22T05:36:19;41.50;;;27.45;;
73136;SDS011;67767;45.636;11.756;2023-06-22T05:38:46;35.20;;;24.17;;
73136;SDS011;67767;45.636;11.756;2023-06-22T05:41:12;29.83;;;22.97;;
73136;SDS011;67767;45.636;11.756;2023-06-22T05:43:39;27.60;;;20.27;;
73136;SDS011;67767;45.636;11.756;2023-06-22T05:46:04;28.27;;;22.45;;
73136;SDS011;67767;45.636;11.756;2023-06-22T05:48:30;29.90;;;20.43;;
73136;SDS011;67767;45.636;11.756;2023-06-22T05:50:56;32.50;;;21.17;;
73136;SDS011;67767;45.636;11.756;2023-06-22T05:53:22;27.05;;;19.10;;
73136;SDS011;67767;45.636;11.756;2023-06-22T05:55:48;31.27;;;20.03;;
73136;SDS011;67767;45.636;11.756;2023-06-22T05:58:13;25.42;;;17.77;;
73136;SDS011;67767;45.636;11.756;2023-06-22T06:00:40;29.77;;;19.87;;
73136;SDS011;67767;45.636;11.756;2023-06-22T06:03:09;32.97;;;23.33;;
73136;SDS011;67767;45.636;11.756;2023-06-22T06:05:35;34.28;;;23.48;;
73136;SDS011;67767;45.636;11.756;2023-06-22T06:08:03;34.28;;;23.67;;
73136;SDS011;67767;45.636;11.756;2023-06-22T06:10:31;36.10;;;23.55;;
73136;SDS011;67767;45.636;11.756;2023-06-22T06:12:57;32.57;;;22.47;;
73136;SDS011;67767;45.636;11.756;2023-06-22T06:15:24;33.17;;;22.35;;
73136;SDS011;67767;45.636;11.756;2023-06-22T06:17:50;34.03;;;22.70;;
73136;SDS011;67767;45.636;11.756;2023-06-22T06:20:21;35.50;;;21.43;;
73136;SDS011;67767;45.636;11.756;2023-06-22T06:22:48;27.05;;;20.00;;
73136;SDS011;67767;45.636;11.756;2023-06-22T06:25:14;24.48;;;19.23;;
73136;SDS011;67767;45.636;11.756;2023-06-22T06:27:49;26.48;;;18.23;;
73136;SDS011;67767;45.636;11.756;2023-06-22T06:30:16;26.30;;;18.30;;
73136;SDS011;67767;45.636;11.756;2023-06-22T06:32:43;28.20;;;19.73;;
73136;SDS011;67767;45.636;11.756;2023-06-22T06:35:11;30.42;;;21.27;;
73136;SDS011;67767;45.636;11.756;2023-06-22T06:37:38;29.92;;;20.83;;
73136;SDS011;67767;45.636;11.756;2023-06-22T06:40:06;29.52;;;20.25;;
73136;SDS011;67767;45.636;11.756;2023-06-22T06:42:53;25.48;;;18.60;;
73136;SDS011;67767;45.636;11.756;2023-06-22T06:45:22;29.20;;;19.50;;
73136;SDS011;67767;45.636;11.756;2023-06-22T06:47:49;29.13;;;19.05;;
73136;SDS011;67767;45.636;11.756;2023-06-22T06:50:16;28.40;;;19.27;;
73136;SDS011;67767;45.636;11.756;2023-06-22T06:52:42;41.83;;;19.77;;
73136;SDS011;67767;45.636;11.756;2023-06-22T06:55:09;28.98;;;18.33;;
73136;SDS011;67767;45.636;11.756;2023-06-22T06:57:37;26.13;;;18.70;;
73136;SDS011;67767;45.636;11.756;2023-06-22T07:00:04;28.83;;;19.33;;
73136;SDS011;67767;45.636;11.756;2023-06-22T07:02:44;32.22;;;18.98;;
73136;SDS011;67767;45.636;11.756;2023-06-22T07:05:13;26.80;;;18.30;;
73136;SDS011;67767;45.636;11.756;2023-06-22T07:07:39;27.07;;;20.03;;
73136;SDS011;67767;45.636;11.756;2023-06-22T07:10:05;40.13;;;18.08;;
73136;SDS011;67767;45.636;11.756;2023-06-22T07:12:31;27.63;;;18.40;;
73136;SDS011;67767;45.636;11.756;2023-06-22T07:15:03;24.47;;;18.70;;
73136;SDS011;67767;45.636;11.756;2023-06-22T07:17:30;26.70;;;18.45;;
73136;SDS011;67767;45.636;11.756;2023-06-22T07:19:57;27.70;;;17.70;;
73136;SDS011;67767;45.636;11.756;2023-06-22T07:22:22;28.27;;;18.57;;
73136;SDS011;67767;45.636;11.756;2023-06-22T07:24:48;23.98;;;17.77;;
73136;SDS011;67767;45.636;11.756;2023-06-22T07:27:14;23.20;;;16.75;;
73136;SDS011;67767;45.636;11.756;2023-06-22T07:29:43;26.80;;;17.87;;
73136;SDS011;67767;45.636;11.756;2023-06-22T07:32:09;22.58;;;17.10;;
73136;SDS011;67767;45.636;11.756;2023-06-22T07:34:35;24.48;;;17.30;;
73136;SDS011;67767;45.636;11.756;2023-06-22T07:37:01;21.37;;;16.50;;
73136;SDS011;67767;45.636;11.756;2023-06-22T07:39:26;28.55;;;17.25;;
73136;SDS011;67767;45.636;11.756;2023-06-22T07:41:53;26.23;;;17.50;;
73136;SDS011;67767;45.636;11.756;2023-06-22T07:44:19;26.95;;;17.65;;
73136;SDS011;67767;45.636;11.756;2023-06-22T07:46:44;25.70;;;18.90;;
73136;SDS011;67767;45.636;11.756;2023-06-22T07:49:10;25.40;;;18.23;;
73136;SDS011;67767;45.636;11.756;2023-06-22T07:51:36;23.43;;;18.60;;
73136;SDS011;67767;45.636;11.756;2023-06-22T07:54:01;24.33;;;16.00;;
73136;SDS011;67767;45.636;11.756;2023-06-22T07:56:27;25.33;;;18.25;;
73136;SDS011;67767;45.636;11.756;2023-06-22T07:58:53;28.07;;;18.63;;
73136;SDS011;67767;45.636;11.756;2023-06-22T08:01:19;26.75;;;18.83;;
73136;SDS011;67767;45.636;11.756;2023-06-22T08:03:47;24.70;;;19.83;;
73136;SDS011;67767;45.636;11.756;2023-06-22T08:06:13;27.17;;;20.23;;
73136;SDS011;67767;45.636;11.756;2023-06-22T08:08:39;30.07;;;18.03;;
73136;SDS011;67767;45.636;11.756;2023-06-22T08:11:05;22.80;;;17.00;;
73136;SDS011;67767;45.636;11.756;2023-06-22T08:13:31;25.03;;;17.43;;
73136;SDS011;67767;45.636;11.756;2023-06-22T08:15:56;27.63;;;16.10;;
73136;SDS011;67767;45.636;11.756;2023-06-22T08:18:22;30.33;;;19.60;;
73136;SDS011;67767;45.636;11.756;2023-06-22T08:20:48;29.03;;;18.43;;
73136;SDS011;67767;45.636;11.756;2023-06-22T08:23:14;28.38;;;19.60;;
73136;SDS011;67767;45.636;11.756;2023-06-22T08:25:40;25.70;;;18.52;;
73136;SDS011;67767;45.636;11.756;2023-06-22T08:28:06;26.30;;;19.40;;
73136;SDS011;67767;45.636;11.756;2023-06-22T08:30:32;29.05;;;19.38;;
73136;SDS011;67767;45.636;11.756;2023-06-22T08:32:58;27.63;;;19.90;;
73136;SDS011;67767;45.636;11.756;2023-06-22T08:35:23;26.77;;;19.23;;
73136;SDS011;67767;45.636;11.756;2023-06-22T08:37:49;27.35;;;17.77;;
73136;SDS011;67767;45.636;11.756;2023-06-22T08:40:17;27.58;;;18.15;;
73136;SDS011;67767;45.636;11.756;2023-06-22T08:42:44;27.10;;;17.67;;
73136;SDS011;67767;45.636;11.756;2023-06-22T08:45:10;23.58;;;17.13;;
73136;SDS011;67767;45.636;11.756;2023-06-22T08:47:36;22.55;;;16.85;;
73136;SDS011;67767;45.636;11.756;2023-06-22T08:50:03;25.95;;;18.45;;
73136;SDS011;67767;45.636;11.756;2023-06-22T08:52:29;27.92;;;18.85;;
73136;SDS011;67767;45.636;11.756;2023-06-22T08:54:55;31.37;;;18.80;;
73136;SDS011;67767;45.636;11.756;2023-06-22T08:57:21;27.15;;;18.48;;
73136;SDS011;67767;45.636;11.756;2023-06-22T08:59:47;29.85;;;19.33;;
73136;SDS011;67767;45.636;11.756;2023-06-22T09:02:13;31.37;;;19.17;;
73136;SDS011;67767;45.636;11.756;2023-06-22T09:04:38;26.70;;;18.27;;
73136;SDS011;67767;45.636;11.756;2023-06-22T09:07:04;28.10;;;19.73;;
73136;SDS011;67767;45.636;11.756;2023-06-22T09:09:30;29.20;;;16.80;;
73136;SDS011;67767;45.636;11.756;2023-06-22T09:11:56;22.60;;;14.63;;
73136;SDS011;67767;45.636;11.756;2023-06-22T09:14:21;21.43;;;15.67;;
73136;SDS011;67767;45.636;11.756;2023-06-22T09:16:47;21.73;;;14.55;;
73136;SDS011;67767;45.636;11.756;2023-06-22T09:19:13;18.77;;;14.00;;
73136;SDS011;67767;45.636;11.756;2023-06-22T09:21:39;20.60;;;16.15;;
73136;SDS011;67767;45.636;11.756;2023-06-22T09:24:04;24.83;;;16.73;;
73136;SDS011;67767;45.636;11.756;2023-06-22T09:26:30;22.30;;;15.60;;
73136;SDS011;67767;45.636;11.756;2023-06-22T09:28:56;25.90;;;15.90;;
73136;SDS011;67767;45.636;11.756;2023-06-22T09:31:22;23.38;;;14.40;;
73136;SDS011;67767;45.636;11.756;2023-06-22T09:33:54;20.70;;;13.93;;
73136;SDS011;67767;45.636;11.756;2023-06-22T09:36:20;17.73;;;13.40;;
73136;SDS011;67767;45.636;11.756;2023-06-22T09:38:47;24.95;;;12.80;;
73136;SDS011;67767;45.636;11.756;2023-06-22T09:41:13;34.57;;;12.90;;
73136;SDS011;67767;45.636;11.756;2023-06-22T09:43:39;20.30;;;11.93;;
73136;SDS011;67767;45.636;11.756;2023-06-22T09:46:04;24.25;;;12.43;;
73136;SDS011;67767;45.636;11.756;2023-06-22T09:48:32;18.17;;;10.55;;
73136;SDS011;67767;45.636;11.756;2023-06-22T09:50:57;18.40;;;10.27;;
73136;SDS011;67767;45.636;11.756;2023-06-22T09:53:23;16.90;;;10.73;;
73136;SDS011;67767;45.636;11.756;2023-06-22T09:55:48;18.20;;;10.20;;
73136;SDS011;67767;45.636;11.756;2023-06-22T09:58:14;16.77;;;10.40;;
73136;SDS011;67767;45.636;11.756;2023-06-22T10:00:40;20.00;;;11.55;;
73136;SDS011;67767;45.636;11.756;2023-06-22T10:03:06;16.65;;;11.30;;
73136;SDS011;67767;45.636;11.756;2023-06-22T10:05:32;16.93;;;9.33;;
73136;SDS011;67767;45.636;11.756;2023-06-22T10:07:58;18.45;;;11.70;;
73136;SDS011;67767;45.636;11.756;2023-06-22T10:10:24;17.67;;;10.53;;
73136;SDS011;67767;45.636;11.756;2023-06-22T10:12:56;20.10;;;12.23;;
73136;SDS011;67767;45.636;11.756;2023-06-22T10:15:23;20.58;;;11.55;;
73136;SDS011;67767;45.636;11.756;2023-06-22T10:17:48;18.40;;;11.45;;
73136;SDS011;67767;45.636;11.756;2023-06-22T10:20:14;17.57;;;11.47;;
73136;SDS011;67767;45.636;11.756;2023-06-22T10:22:41;17.10;;;10.52;;
73136;SDS011;67767;45.636;11.756;2023-06-22T10:25:08;15.50;;;10.30;;
73136;SDS011;67767;45.636;11.756;2023-06-22T10:27:35;13.37;;;9.23;;
73136;SDS011;67767;45.636;11.756;2023-06-22T10:30:01;13.13;;;8.45;;
73136;SDS011;67767;45.636;11.756;2023-06-22T10:32:27;14.43;;;8.70;;
73136;SDS011;67767;45.636;11.756;2023-06-22T10:34:55;11.07;;;7.33;;
73136;SDS011;67767;45.636;11.756;2023-06-22T10:37:21;13.32;;;7.72;;
73136;SDS011;67767;45.636;11.756;2023-06-22T10:39:47;15.35;;;8.98;;
73136;SDS011;67767;45.636;11.756;2023-06-22T10:42:13;14.20;;;8.50;;
73136;SDS011;67767;45.636;11.756;2023-06-22T10:44:39;15.40;;;8.27;;
73136;SDS011;67767;45.636;11.756;2023-06-22T10:47:06;22.92;;;8.30;;
73136;SDS011;67767;45.636;11.756;2023-06-22T10:49:32;12.93;;;7.40;;
73136;SDS011;67767;45.636;11.756;2023-06-22T10:51:57;14.55;;;7.57;;
73136;SDS011;67767;45.636;11.756;2023-06-22T10:54:23;12.73;;;7.40;;
73136;SDS011;67767;45.636;11.756;2023-06-22T10:56:49;13.85;;;7.80;;
73136;SDS011;67767;45.636;11.756;2023-06-22T10:59:15;14.33;;;8.30;;
73136;SDS011;67767;45.636;11.756;2023-06-22T11:01:41;15.52;;;8.15;;
73136;SDS011;67767;45.636;11.756;2023-06-22T11:04:07;12.65;;;7.45;;
73136;SDS011;67767;45.636;11.756;2023-06-22T11:06:33;15.00;;;7.50;;
73136;SDS011;67767;45.636;11.756;2023-06-22T11:08:58;14.23;;;7.15;;
73136;SDS011;67767;45.636;11.756;2023-06-22T11:11:25;12.57;;;6.90;;
73136;SDS011;67767;45.636;11.756;2023-06-22T11:13:52;15.75;;;6.93;;
73136;SDS011;67767;45.636;11.756;2023-06-22T11:16:18;10.45;;;6.50;;
73136;SDS011;67767;45.636;11.756;2023-06-22T11:18:43;19.63;;;7.20;;
73136;SDS011;67767;45.636;11.756;2023-06-22T11:21:09;11.43;;;6.80;;
73136;SDS011;67767;45.636;11.756;2023-06-22T11:23:35;14.53;;;6.53;;
73136;SDS011;67767;45.636;11.756;2023-06-22T11:26:00;12.77;;;6.60;;
73136;SDS011;67767;45.636;11.756;2023-06-22T11:28:27;12.10;;;6.10;;
73136;SDS011;67767;45.636;11.756;2023-06-22T11:30:52;11.45;;;6.28;;
73136;SDS011;67767;45.636;11.756;2023-06-22T11:33:18;11.50;;;6.53;;
73136;SDS011;67767;45.636;11.756;2023-06-22T11:35:44;13.30;;;6.57;;
73136;SDS011;67767;45.636;11.756;2023-06-22T11:38:09;11.38;;;7.13;;
73136;SDS011;67767;45.636;11.756;2023-06-22T11:40:35;12.60;;;6.77;;
73136;SDS011;67767;45.636;11.756;2023-06-22T11:43:01;14.53;;;6.60;;
73136;SDS011;67767;45.636;11.756;2023-06-22T11:45:27;12.15;;;6.30;;
73136;SDS011;67767;45.636;11.756;2023-06-22T11:47:53;10.10;;;6.20;;
73136;SDS011;67767;45.636;11.756;2023-06-22T11:50:19;10.77;;;5.50;;
73136;SDS011;67767;45.636;11.756;2023-06-22T11:52:44;11.37;;;6.40;;
73136;SDS011;67767;45.636;11.756;2023-06-22T11:55:10;11.98;;;6.20;;
73136;SDS011;67767;45.636;11.756;2023-06-22T11:57:36;13.97;;;6.70;;
73136;SDS011;67767;45.636;11.756;2023-06-22T12:00:03;10.48;;;6.50;;
73136;SDS011;67767;45.636;11.756;2023-06-22T12:02:50;18.42;;;7.10;;
73136;SDS011;67767;45.636;11.756;2023-06-22T12:05:19;12.02;;;6.88;;
73136;SDS011;67767;45.636;11.756;2023-06-22T12:07:49;17.08;;;6.93;;
73136;SDS011;67767;45.636;11.756;2023-06-22T12:10:15;14.40;;;6.70;;
73136;SDS011;67767;45.636;11.756;2023-06-22T12:12:41;13.23;;;7.20;;
73136;SDS011;67767;45.636;11.756;2023-06-22T12:15:08;13.53;;;7.00;;
73136;SDS011;67767;45.636;11.756;2023-06-22T12:17:35;10.70;;;6.90;;
73136;SDS011;67767;45.636;11.756;2023-06-22T12:20:01;12.45;;;7.30;;
73136;SDS011;67767;45.636;11.756;2023-06-22T12:22:29;11.45;;;7.22;;
73136;SDS011;67767;45.636;11.756;2023-06-22T12:24:54;11.97;;;7.27;;
73136;SDS011;67767;45.636;11.756;2023-06-22T12:27:20;12.45;;;6.63;;
73136;SDS011;67767;45.636;11.756;2023-06-22T12:29:46;11.00;;;7.43;;
73136;SDS011;67767;45.636;11.756;2023-06-22T12:32:12;11.70;;;6.55;;
73136;SDS011;67767;45.636;11.756;2023-06-22T12:34:39;12.20;;;6.90;;
73136;SDS011;67767;45.636;11.756;2023-06-22T12:37:05;13.20;;;6.97;;
73136;SDS011;67767;45.636;11.756;2023-06-22T12:39:31;11.63;;;7.07;;
73136;SDS011;67767;45.636;11.756;2023-06-22T12:41:57;12.15;;;6.30;;
73136;SDS011;67767;45.636;11.756;2023-06-22T12:44:23;11.57;;;6.90;;
73136;SDS011;67767;45.636;11.756;2023-06-22T12:46:48;11.35;;;6.65;;
73136;SDS011;67767;45.636;11.756;2023-06-22T12:49:14;11.47;;;7.60;;
73136;SDS011;67767;45.636;11.756;2023-06-22T12:51:40;15.55;;;7.32;;
73136;SDS011;67767;45.636;11.756;2023-06-22T12:54:09;13.95;;;8.13;;
73136;SDS011;67767;45.636;11.756;2023-06-22T12:56:36;12.80;;;7.65;;
73136;SDS011;67767;45.636;11.756;2023-06-22T12:59:03;12.55;;;7.10;;
73136;SDS011;67767;45.636;11.756;2023-06-22T13:01:29;12.87;;;7.00;;
73136;SDS011;67767;45.636;11.756;2023-06-22T13:03:55;15.80;;;7.70;;
73136;SDS011;67767;45.636;11.756;2023-06-22T13:06:21;14.90;;;7.03;;
73136;SDS011;67767;45.636;11.756;2023-06-22T13:08:47;11.35;;;7.07;;
73136;SDS011;67767;45.636;11.756;2023-06-22T13:11:12;10.80;;;7.00;;
73136;SDS011;67767;45.636;11.756;2023-06-22T13:13:38;12.75;;;7.32;;
73136;SDS011;67767;45.636;11.756;2023-06-22T13:16:05;10.87;;;6.93;;
73136;SDS011;67767;45.636;11.756;2023-06-22T13:18:31;11.60;;;7.35;;
73136;SDS011;67767;45.636;11.756;2023-06-22T13:20:56;11.70;;;7.30;;
73136;SDS011;67767;45.636;11.756;2023-06-22T13:23:23;10.70;;;7.07;;
73136;SDS011;67767;45.636;11.756;2023-06-22T13:25:49;13.30;;;7.28;;
73136;SDS011;67767;45.636;11.756;2023-06-22T13:28:14;9.40;;;7.27;;
73136;SDS011;67767;45.636;11.756;2023-06-22T13:30:41;10.35;;;6.90;;
73136;SDS011;67767;45.636;11.756;2023-06-22T13:33:08;13.00;;;8.00;;
73136;SDS011;67767;45.636;11.756;2023-06-22T13:35:34;17.50;;;8.43;;
73136;SDS011;67767;45.636;11.756;2023-06-22T13:38:00;13.40;;;7.93;;
73136;SDS011;67767;45.636;11.756;2023-06-22T13:40:26;13.13;;;7.78;;
73136;SDS011;67767;45.636;11.756;2023-06-22T13:42:52;12.45;;;8.20;;
73136;SDS011;67767;45.636;11.756;2023-06-22T13:45:17;15.60;;;8.43;;
73136;SDS011;67767;45.636;11.756;2023-06-22T13:47:44;14.63;;;8.48;;
73136;SDS011;67767;45.636;11.756;2023-06-22T13:50:10;29.42;;;26.63;;
73136;SDS011;67767;45.636;11.756;2023-06-22T13:52:37;10.33;;;8.27;;
73136;SDS011;67767;45.636;11.756;2023-06-22T13:55:04;11.18;;;8.27;;
73136;SDS011;67767;45.636;11.756;2023-06-22T13:57:30;16.08;;;9.27;;
73136;SDS011;67767;45.636;11.756;2023-06-22T13:59:56;11.23;;;8.17;;
73136;SDS011;67767;45.636;11.756;2023-06-22T14:02:21;11.75;;;8.30;;
73136;SDS011;67767;45.636;11.756;2023-06-22T14:04:47;12.83;;;9.00;;
73136;SDS011;67767;45.636;11.756;2023-06-22T14:07:13;12.60;;;8.63;;
73136;SDS011;67767;45.636;11.756;2023-06-22T14:09:38;12.27;;;8.23;;
73136;SDS011;67767;45.636;11.756;2023-06-22T14:12:04;13.85;;;8.60;;
73136;SDS011;67767;45.636;11.756;2023-06-22T14:14:31;13.70;;;8.10;;
73136;SDS011;67767;45.636;11.756;2023-06-22T14:16:58;16.20;;;8.52;;